CRN225 TKPK-TNCM
Flight info
| Callsign | CRN225 |
|---|---|
| Flight time | 0h 19m |
| Altitude | 10000 |
| Route | KIPUR1 ZPATA A517 PJM DCT |
| Aircraft | AT76/M-SDFGIRY/S |
Departure
| Time | 2026-04-30 20:21 |
|---|---|
| Airport | Robert L. Bradshaw International Airport (TKPK) |
Arrival
| Time | 2026-04-30 20:41 |
|---|---|
| Airport | Princess Juliana International Airport (TNCM) |
| Time | Latitude | Longitude | Altitude | Speed | Heading |
|---|---|---|---|---|---|
| 2026-04-30 20:12 | 17.30887 | -62.71817 | 170 ft | 0 kts | 148° |
| 2026-04-30 20:18 | 17.30912 | -62.71833 | 170 ft | 8 kts | 148° |
| 2026-04-30 20:18 | 17.30947 | -62.71851 | 170 ft | 0 kts | 217° |
| 2026-04-30 20:18 | 17.30930 | -62.71869 | 168 ft | 6 kts | 227° |
| 2026-04-30 20:18 | 17.30892 | -62.71917 | 170 ft | 10 kts | 236° |
| 2026-04-30 20:19 | 17.30845 | -62.71991 | 171 ft | 14 kts | 241° |
| 2026-04-30 20:19 | 17.30789 | -62.72089 | 171 ft | 17 kts | 236° |
| 2026-04-30 20:19 | 17.30724 | -62.72199 | 171 ft | 18 kts | 250° |
| 2026-04-30 20:19 | 17.30714 | -62.72331 | 172 ft | 18 kts | 270° |
| 2026-04-30 20:20 | 17.30708 | -62.72460 | 172 ft | 18 kts | 266° |
| 2026-04-30 20:20 | 17.30728 | -62.72495 | 172 ft | 2 kts | 39° |
| 2026-04-30 20:20 | 17.30823 | -62.72340 | 173 ft | 53 kts | 56° |
| 2026-04-30 20:20 | 17.31123 | -62.71857 | 170 ft | 104 kts | 60° |
| 2026-04-30 20:21 | 17.31570 | -62.71162 | 384 ft | 124 kts | 55° |
| 2026-04-30 20:21 | 17.32118 | -62.70394 | 814 ft | 133 kts | 58° |
| 2026-04-30 20:21 | 17.32649 | -62.69535 | 1254 ft | 148 kts | 60° |
| 2026-04-30 20:21 | 17.33244 | -62.68597 | 1682 ft | 158 kts | 58° |
| 2026-04-30 20:22 | 17.33857 | -62.67607 | 2160 ft | 165 kts | 59° |
| 2026-04-30 20:22 | 17.34605 | -62.66700 | 2637 ft | 172 kts | 28° |
| 2026-04-30 20:22 | 17.35787 | -62.66646 | 3135 ft | 179 kts | 338° |
| 2026-04-30 20:22 | 17.36656 | -62.67567 | 3628 ft | 181 kts | 295° |
| 2026-04-30 20:23 | 17.37146 | -62.68785 | 4113 ft | 184 kts | 291° |
| 2026-04-30 20:23 | 17.37607 | -62.70059 | 4620 ft | 189 kts | 292° |
| 2026-04-30 20:23 | 17.38149 | -62.71340 | 5105 ft | 193 kts | 297° |
| 2026-04-30 20:23 | 17.38804 | -62.72584 | 5574 ft | 198 kts | 302° |
| 2026-04-30 20:24 | 17.39604 | -62.73819 | 5825 ft | 215 kts | 308° |
| 2026-04-30 20:24 | 17.40562 | -62.75073 | 6091 ft | 228 kts | 311° |
| 2026-04-30 20:24 | 17.41630 | -62.76361 | 6338 ft | 239 kts | 313° |
| 2026-04-30 20:24 | 17.42757 | -62.77695 | 6567 ft | 248 kts | 312° |
| 2026-04-30 20:25 | 17.45063 | -62.80479 | 7032 ft | 259 kts | 311° |
| 2026-04-30 20:25 | 17.46240 | -62.81931 | 7265 ft | 263 kts | 311° |
| 2026-04-30 20:26 | 17.48694 | -62.84808 | 7735 ft | 261 kts | 316° |
| 2026-04-30 20:26 | 17.51354 | -62.87406 | 7919 ft | 265 kts | 318° |
| 2026-04-30 20:26 | 17.52720 | -62.88727 | 7953 ft | 268 kts | 317° |
| 2026-04-30 20:27 | 17.55435 | -62.91445 | 7974 ft | 274 kts | 316° |
| 2026-04-30 20:27 | 17.58205 | -62.94233 | 7980 ft | 277 kts | 316° |
| 2026-04-30 20:28 | 17.60984 | -62.97038 | 7980 ft | 279 kts | 316° |
| 2026-04-30 20:28 | 17.63774 | -62.99875 | 7984 ft | 280 kts | 316° |
| 2026-04-30 20:29 | 17.66581 | -63.02758 | 7691 ft | 282 kts | 317° |
| 2026-04-30 20:30 | 17.70755 | -63.06963 | 6921 ft | 271 kts | 317° |
| 2026-04-30 20:30 | 17.74869 | -63.11138 | 6297 ft | 268 kts | 317° |
| 2026-04-30 20:31 | 17.78681 | -63.14997 | 5663 ft | 249 kts | 317° |
| 2026-04-30 20:32 | 17.82410 | -63.18765 | 4987 ft | 248 kts | 316° |
| 2026-04-30 20:32 | 17.84898 | -63.21281 | 4557 ft | 247 kts | 317° |
| 2026-04-30 20:33 | 17.86125 | -63.22523 | 4338 ft | 247 kts | 317° |
| 2026-04-30 20:33 | 17.88592 | -63.25024 | 3886 ft | 246 kts | 316° |
| 2026-04-30 20:33 | 17.89829 | -63.26275 | 3672 ft | 246 kts | 316° |
| 2026-04-30 20:34 | 17.92542 | -63.28225 | 3177 ft | 230 kts | 349° |
| 2026-04-30 20:34 | 17.95580 | -63.28673 | 2723 ft | 210 kts | 355° |
| 2026-04-30 20:35 | 17.97002 | -63.28853 | 2652 ft | 202 kts | 354° |
| 2026-04-30 20:35 | 17.98370 | -63.29046 | 2614 ft | 192 kts | 353° |
| 2026-04-30 20:35 | 18.00485 | -63.28767 | 2590 ft | 135 kts | 54° |
| 2026-04-30 20:36 | 18.00947 | -63.28007 | 2564 ft | 115 kts | 63° |
| 2026-04-30 20:36 | 18.01330 | -63.27218 | 2565 ft | 123 kts | 68° |
| 2026-04-30 20:36 | 18.01878 | -63.25579 | 2554 ft | 117 kts | 76° |
| 2026-04-30 20:37 | 18.02075 | -63.24753 | 2518 ft | 116 kts | 79° |
| 2026-04-30 20:37 | 18.02235 | -63.23932 | 2467 ft | 117 kts | 81° |
| 2026-04-30 20:37 | 18.02375 | -63.23094 | 2441 ft | 115 kts | 82° |
| 2026-04-30 20:37 | 18.02500 | -63.22263 | 2402 ft | 115 kts | 83° |
| 2026-04-30 20:38 | 18.02622 | -63.21466 | 2103 ft | 115 kts | 82° |
| 2026-04-30 20:38 | 18.02734 | -63.20624 | 1806 ft | 119 kts | 83° |
| 2026-04-30 20:38 | 18.02826 | -63.19760 | 1527 ft | 119 kts | 84° |
| 2026-04-30 20:39 | 18.03059 | -63.18077 | 1225 ft | 124 kts | 79° |
| 2026-04-30 20:39 | 18.03211 | -63.17201 | 1175 ft | 123 kts | 81° |
| 2026-04-30 20:39 | 18.03343 | -63.16303 | 1071 ft | 123 kts | 82° |
| 2026-04-30 20:40 | 18.03555 | -63.14562 | 779 ft | 113 kts | 84° |
| 2026-04-30 20:40 | 18.03702 | -63.13707 | 419 ft | 122 kts | 81° |
| 2026-04-30 20:40 | 18.03835 | -63.12835 | 228 ft | 118 kts | 86° |
| 2026-04-30 20:41 | 18.04028 | -63.11313 | 17 ft | 48 kts | 83° |
| 2026-04-30 20:41 | 18.04086 | -63.11160 | 18 ft | 17 kts | 11° |
| 2026-04-30 20:41 | 18.04149 | -63.11180 | 19 ft | 3 kts | 288° |
| 2026-04-30 20:41 | 18.04144 | -63.11204 | 18 ft | 10 kts | 259° |